sensor_id;sensor_type;location;lat;lon;timestamp;P1;durP1;ratioP1;P2;durP2;ratioP2
76608;SDS011;65928;53.936;27.540;2023-03-16T00:01:16;17.58;;;9.68;;
76608;SDS011;65928;53.936;27.540;2023-03-16T00:03:42;16.02;;;10.30;;
76608;SDS011;65928;53.936;27.540;2023-03-16T00:06:08;12.82;;;8.10;;
76608;SDS011;65928;53.936;27.540;2023-03-16T00:08:33;14.43;;;7.55;;
76608;SDS011;65928;53.936;27.540;2023-03-16T00:10:59;12.35;;;8.45;;
76608;SDS011;65928;53.936;27.540;2023-03-16T00:13:27;12.35;;;8.35;;
76608;SDS011;65928;53.936;27.540;2023-03-16T00:15:57;15.50;;;8.75;;
76608;SDS011;65928;53.936;27.540;2023-03-16T00:18:25;14.02;;;7.32;;
76608;SDS011;65928;53.936;27.540;2023-03-16T00:20:52;13.75;;;8.85;;
76608;SDS011;65928;53.936;27.540;2023-03-16T00:23:20;11.93;;;7.25;;
76608;SDS011;65928;53.936;27.540;2023-03-16T00:25:51;15.52;;;7.97;;
76608;SDS011;65928;53.936;27.540;2023-03-16T00:28:20;17.83;;;8.13;;
76608;SDS011;65928;53.936;27.540;2023-03-16T00:30:46;15.23;;;8.43;;
76608;SDS011;65928;53.936;27.540;2023-03-16T00:33:12;13.05;;;7.90;;
76608;SDS011;65928;53.936;27.540;2023-03-16T00:35:38;14.70;;;7.68;;
76608;SDS011;65928;53.936;27.540;2023-03-16T00:38:03;12.00;;;6.88;;
76608;SDS011;65928;53.936;27.540;2023-03-16T00:40:29;10.30;;;7.03;;
76608;SDS011;65928;53.936;27.540;2023-03-16T00:42:55;10.73;;;6.70;;
76608;SDS011;65928;53.936;27.540;2023-03-16T00:45:21;10.63;;;6.95;;
76608;SDS011;65928;53.936;27.540;2023-03-16T00:47:47;9.93;;;5.90;;
76608;SDS011;65928;53.936;27.540;2023-03-16T00:50:13;9.55;;;6.50;;
76608;SDS011;65928;53.936;27.540;2023-03-16T00:52:39;10.10;;;5.65;;
76608;SDS011;65928;53.936;27.540;2023-03-16T00:55:04;8.35;;;5.15;;
76608;SDS011;65928;53.936;27.540;2023-03-16T00:57:30;8.20;;;5.07;;
76608;SDS011;65928;53.936;27.540;2023-03-16T00:59:56;10.75;;;4.95;;
76608;SDS011;65928;53.936;27.540;2023-03-16T01:02:21;6.28;;;4.10;;
76608;SDS011;65928;53.936;27.540;2023-03-16T01:04:49;7.63;;;3.40;;
76608;SDS011;65928;53.936;27.540;2023-03-16T01:07:16;5.85;;;3.45;;
76608;SDS011;65928;53.936;27.540;2023-03-16T01:09:42;5.82;;;3.70;;
76608;SDS011;65928;53.936;27.540;2023-03-16T01:12:12;5.93;;;3.47;;
76608;SDS011;65928;53.936;27.540;2023-03-16T01:14:40;7.43;;;3.10;;
76608;SDS011;65928;53.936;27.540;2023-03-16T01:17:07;4.78;;;2.35;;
76608;SDS011;65928;53.936;27.540;2023-03-16T01:19:34;4.38;;;2.35;;
76608;SDS011;65928;53.936;27.540;2023-03-16T01:22:01;5.75;;;3.03;;
76608;SDS011;65928;53.936;27.540;2023-03-16T01:24:28;8.07;;;2.90;;
76608;SDS011;65928;53.936;27.540;2023-03-16T01:26:54;4.75;;;2.35;;
76608;SDS011;65928;53.936;27.540;2023-03-16T01:29:19;4.15;;;2.33;;
76608;SDS011;65928;53.936;27.540;2023-03-16T01:31:45;5.43;;;2.10;;
76608;SDS011;65928;53.936;27.540;2023-03-16T01:34:10;6.38;;;3.33;;
76608;SDS011;65928;53.936;27.540;2023-03-16T01:36:41;4.43;;;2.00;;
76608;SDS011;65928;53.936;27.540;2023-03-16T01:39:08;4.18;;;2.38;;
76608;SDS011;65928;53.936;27.540;2023-03-16T01:41:35;5.45;;;2.00;;
76608;SDS011;65928;53.936;27.540;2023-03-16T01:44:01;12.52;;;5.30;;
76608;SDS011;65928;53.936;27.540;2023-03-16T01:46:27;5.18;;;2.40;;
76608;SDS011;65928;53.936;27.540;2023-03-16T01:48:55;4.70;;;2.65;;
76608;SDS011;65928;53.936;27.540;2023-03-16T01:51:38;5.18;;;2.10;;
76608;SDS011;65928;53.936;27.540;2023-03-16T01:59:26;4.95;;;2.40;;
76608;SDS011;65928;53.936;27.540;2023-03-16T02:01:56;4.63;;;2.33;;
76608;SDS011;65928;53.936;27.540;2023-03-16T02:07:33;6.75;;;2.47;;
76608;SDS011;65928;53.936;27.540;2023-03-16T02:10:02;6.55;;;3.05;;
76608;SDS011;65928;53.936;27.540;2023-03-16T02:12:29;3.95;;;1.90;;
76608;SDS011;65928;53.936;27.540;2023-03-16T02:14:55;3.40;;;1.65;;
76608;SDS011;65928;53.936;27.540;2023-03-16T02:17:21;4.18;;;1.67;;
76608;SDS011;65928;53.936;27.540;2023-03-16T02:22:33;5.60;;;1.50;;
76608;SDS011;65928;53.936;27.540;2023-03-16T02:25:01;3.85;;;1.60;;
76608;SDS011;65928;53.936;27.540;2023-03-16T02:27:33;4.00;;;1.98;;
76608;SDS011;65928;53.936;27.540;2023-03-16T02:30:14;4.45;;;2.00;;
76608;SDS011;65928;53.936;27.540;2023-03-16T02:32:41;5.35;;;1.70;;
76608;SDS011;65928;53.936;27.540;2023-03-16T02:35:08;5.07;;;1.80;;
76608;SDS011;65928;53.936;27.540;2023-03-16T02:37:34;3.08;;;1.70;;
76608;SDS011;65928;53.936;27.540;2023-03-16T02:40:00;3.70;;;1.48;;
76608;SDS011;65928;53.936;27.540;2023-03-16T02:42:33;3.65;;;1.90;;
76608;SDS011;65928;53.936;27.540;2023-03-16T02:44:59;4.10;;;1.98;;
76608;SDS011;65928;53.936;27.540;2023-03-16T02:47:35;4.07;;;1.77;;
76608;SDS011;65928;53.936;27.540;2023-03-16T02:50:10;2.75;;;1.50;;
76608;SDS011;65928;53.936;27.540;2023-03-16T02:52:37;6.45;;;1.83;;
76608;SDS011;65928;53.936;27.540;2023-03-16T02:55:06;6.57;;;1.90;;
76608;SDS011;65928;53.936;27.540;2023-03-16T02:57:32;4.53;;;1.70;;
76608;SDS011;65928;53.936;27.540;2023-03-16T02:59:58;3.28;;;1.70;;
76608;SDS011;65928;53.936;27.540;2023-03-16T03:02:25;5.03;;;1.40;;
76608;SDS011;65928;53.936;27.540;2023-03-16T03:04:50;3.35;;;1.25;;
76608;SDS011;65928;53.936;27.540;2023-03-16T03:07:19;4.03;;;1.83;;
76608;SDS011;65928;53.936;27.540;2023-03-16T03:09:45;2.42;;;1.33;;
76608;SDS011;65928;53.936;27.540;2023-03-16T03:12:11;3.17;;;1.42;;
76608;SDS011;65928;53.936;27.540;2023-03-16T03:14:37;4.47;;;1.63;;
76608;SDS011;65928;53.936;27.540;2023-03-16T03:17:06;3.72;;;1.67;;
76608;SDS011;65928;53.936;27.540;2023-03-16T03:19:33;3.80;;;1.48;;
76608;SDS011;65928;53.936;27.540;2023-03-16T03:21:59;4.25;;;1.23;;
76608;SDS011;65928;53.936;27.540;2023-03-16T03:24:30;4.15;;;1.48;;
76608;SDS011;65928;53.936;27.540;2023-03-16T03:26:57;4.78;;;2.72;;
76608;SDS011;65928;53.936;27.540;2023-03-16T03:29:29;3.85;;;1.35;;
76608;SDS011;65928;53.936;27.540;2023-03-16T03:32:07;3.25;;;1.30;;
76608;SDS011;65928;53.936;27.540;2023-03-16T03:34:33;5.85;;;1.95;;
76608;SDS011;65928;53.936;27.540;2023-03-16T03:36:58;3.97;;;1.70;;
76608;SDS011;65928;53.936;27.540;2023-03-16T03:39:25;3.58;;;1.38;;
76608;SDS011;65928;53.936;27.540;2023-03-16T03:41:50;4.18;;;1.50;;
76608;SDS011;65928;53.936;27.540;2023-03-16T03:44:21;3.90;;;2.20;;
76608;SDS011;65928;53.936;27.540;2023-03-16T03:46:47;2.53;;;1.00;;
76608;SDS011;65928;53.936;27.540;2023-03-16T03:49:13;3.80;;;1.58;;
76608;SDS011;65928;53.936;27.540;2023-03-16T03:51:39;4.45;;;1.55;;
76608;SDS011;65928;53.936;27.540;2023-03-16T03:54:05;3.92;;;1.65;;
76608;SDS011;65928;53.936;27.540;2023-03-16T03:56:30;5.88;;;1.83;;
76608;SDS011;65928;53.936;27.540;2023-03-16T03:58:56;5.15;;;1.60;;
76608;SDS011;65928;53.936;27.540;2023-03-16T04:01:21;4.00;;;1.60;;
76608;SDS011;65928;53.936;27.540;2023-03-16T04:03:47;3.63;;;1.23;;
76608;SDS011;65928;53.936;27.540;2023-03-16T04:06:12;6.57;;;1.60;;
76608;SDS011;65928;53.936;27.540;2023-03-16T04:08:38;4.53;;;1.48;;
76608;SDS011;65928;53.936;27.540;2023-03-16T04:11:03;3.72;;;1.63;;
76608;SDS011;65928;53.936;27.540;2023-03-16T04:13:28;4.78;;;1.90;;
76608;SDS011;65928;53.936;27.540;2023-03-16T04:16:00;4.85;;;1.25;;
76608;SDS011;65928;53.936;27.540;2023-03-16T04:18:29;4.90;;;1.77;;
76608;SDS011;65928;53.936;27.540;2023-03-16T04:21:02;4.68;;;1.80;;
76608;SDS011;65928;53.936;27.540;2023-03-16T04:23:31;4.45;;;2.65;;
76608;SDS011;65928;53.936;27.540;2023-03-16T04:25:58;5.07;;;2.47;;
76608;SDS011;65928;53.936;27.540;2023-03-16T04:28:24;12.10;;;3.53;;
76608;SDS011;65928;53.936;27.540;2023-03-16T04:30:50;16.17;;;6.40;;
76608;SDS011;65928;53.936;27.540;2023-03-16T04:33:18;28.95;;;12.98;;
76608;SDS011;65928;53.936;27.540;2023-03-16T04:35:45;33.42;;;14.63;;
76608;SDS011;65928;53.936;27.540;2023-03-16T04:38:11;21.92;;;8.90;;
76608;SDS011;65928;53.936;27.540;2023-03-16T04:40:37;9.80;;;5.40;;
76608;SDS011;65928;53.936;27.540;2023-03-16T04:43:02;7.47;;;3.20;;
76608;SDS011;65928;53.936;27.540;2023-03-16T04:45:28;4.18;;;2.95;;
76608;SDS011;65928;53.936;27.540;2023-03-16T04:47:53;4.38;;;2.25;;
76608;SDS011;65928;53.936;27.540;2023-03-16T04:50:19;5.55;;;2.05;;
76608;SDS011;65928;53.936;27.540;2023-03-16T04:52:44;5.22;;;2.47;;
76608;SDS011;65928;53.936;27.540;2023-03-16T04:55:09;5.75;;;2.10;;
76608;SDS011;65928;53.936;27.540;2023-03-16T04:57:36;5.43;;;1.85;;
76608;SDS011;65928;53.936;27.540;2023-03-16T05:00:01;6.32;;;2.22;;
76608;SDS011;65928;53.936;27.540;2023-03-16T05:02:34;4.32;;;3.10;;
76608;SDS011;65928;53.936;27.540;2023-03-16T05:04:59;4.85;;;2.33;;
76608;SDS011;65928;53.936;27.540;2023-03-16T05:07:25;5.45;;;2.58;;
76608;SDS011;65928;53.936;27.540;2023-03-16T05:09:50;7.15;;;4.20;;
76608;SDS011;65928;53.936;27.540;2023-03-16T05:12:16;7.85;;;4.05;;
76608;SDS011;65928;53.936;27.540;2023-03-16T05:14:41;5.03;;;1.90;;
76608;SDS011;65928;53.936;27.540;2023-03-16T05:17:06;4.03;;;1.88;;
76608;SDS011;65928;53.936;27.540;2023-03-16T05:19:32;5.45;;;1.98;;
76608;SDS011;65928;53.936;27.540;2023-03-16T05:21:57;5.40;;;1.70;;
76608;SDS011;65928;53.936;27.540;2023-03-16T05:24:23;4.07;;;1.60;;
76608;SDS011;65928;53.936;27.540;2023-03-16T05:26:48;3.75;;;1.88;;
76608;SDS011;65928;53.936;27.540;2023-03-16T05:29:13;3.33;;;1.50;;
76608;SDS011;65928;53.936;27.540;2023-03-16T05:31:39;3.63;;;1.67;;
76608;SDS011;65928;53.936;27.540;2023-03-16T05:34:04;4.70;;;2.72;;
76608;SDS011;65928;53.936;27.540;2023-03-16T05:36:30;4.28;;;1.40;;
76608;SDS011;65928;53.936;27.540;2023-03-16T05:38:55;4.03;;;1.67;;
76608;SDS011;65928;53.936;27.540;2023-03-16T05:41:22;6.40;;;2.17;;
76608;SDS011;65928;53.936;27.540;2023-03-16T05:43:47;8.45;;;5.13;;
76608;SDS011;65928;53.936;27.540;2023-03-16T05:46:13;18.45;;;6.03;;
76608;SDS011;65928;53.936;27.540;2023-03-16T05:48:38;10.15;;;4.13;;
76608;SDS011;65928;53.936;27.540;2023-03-16T05:51:04;9.52;;;3.78;;
76608;SDS011;65928;53.936;27.540;2023-03-16T05:53:30;10.77;;;4.18;;
76608;SDS011;65928;53.936;27.540;2023-03-16T05:55:56;7.95;;;3.15;;
76608;SDS011;65928;53.936;27.540;2023-03-16T05:58:21;6.88;;;3.25;;
76608;SDS011;65928;53.936;27.540;2023-03-16T06:00:47;8.25;;;3.97;;
76608;SDS011;65928;53.936;27.540;2023-03-16T06:03:14;6.05;;;2.92;;
76608;SDS011;65928;53.936;27.540;2023-03-16T06:05:39;8.32;;;3.30;;
76608;SDS011;65928;53.936;27.540;2023-03-16T06:08:05;10.07;;;3.60;;
76608;SDS011;65928;53.936;27.540;2023-03-16T06:10:31;5.68;;;2.95;;
76608;SDS011;65928;53.936;27.540;2023-03-16T06:12:56;5.88;;;2.50;;
76608;SDS011;65928;53.936;27.540;2023-03-16T06:15:22;6.05;;;2.40;;
76608;SDS011;65928;53.936;27.540;2023-03-16T06:17:49;4.43;;;2.25;;
76608;SDS011;65928;53.936;27.540;2023-03-16T06:20:14;4.88;;;2.33;;
76608;SDS011;65928;53.936;27.540;2023-03-16T06:22:41;8.45;;;4.18;;
76608;SDS011;65928;53.936;27.540;2023-03-16T06:25:08;7.07;;;3.05;;
76608;SDS011;65928;53.936;27.540;2023-03-16T06:27:36;7.22;;;3.35;;
76608;SDS011;65928;53.936;27.540;2023-03-16T06:30:01;11.18;;;5.82;;
76608;SDS011;65928;53.936;27.540;2023-03-16T06:32:27;7.03;;;3.22;;
76608;SDS011;65928;53.936;27.540;2023-03-16T06:34:52;7.20;;;3.17;;
76608;SDS011;65928;53.936;27.540;2023-03-16T06:37:18;7.20;;;4.05;;
76608;SDS011;65928;53.936;27.540;2023-03-16T06:39:43;7.00;;;3.08;;
76608;SDS011;65928;53.936;27.540;2023-03-16T06:42:09;8.55;;;3.97;;
76608;SDS011;65928;53.936;27.540;2023-03-16T06:44:34;6.40;;;4.13;;
76608;SDS011;65928;53.936;27.540;2023-03-16T06:47:00;9.20;;;5.28;;
76608;SDS011;65928;53.936;27.540;2023-03-16T06:49:25;8.65;;;5.75;;
76608;SDS011;65928;53.936;27.540;2023-03-16T06:51:51;8.73;;;3.75;;
76608;SDS011;65928;53.936;27.540;2023-03-16T06:54:16;5.70;;;3.65;;
76608;SDS011;65928;53.936;27.540;2023-03-16T06:56:41;8.07;;;4.78;;
76608;SDS011;65928;53.936;27.540;2023-03-16T06:59:07;5.85;;;3.10;;
76608;SDS011;65928;53.936;27.540;2023-03-16T07:01:32;6.13;;;2.85;;
76608;SDS011;65928;53.936;27.540;2023-03-16T07:03:58;7.78;;;4.40;;
76608;SDS011;65928;53.936;27.540;2023-03-16T07:06:23;5.53;;;3.28;;
76608;SDS011;65928;53.936;27.540;2023-03-16T07:08:48;7.57;;;2.70;;
76608;SDS011;65928;53.936;27.540;2023-03-16T07:11:14;7.47;;;2.65;;
76608;SDS011;65928;53.936;27.540;2023-03-16T07:13:39;4.15;;;2.30;;
76608;SDS011;65928;53.936;27.540;2023-03-16T07:16:05;6.75;;;2.78;;
76608;SDS011;65928;53.936;27.540;2023-03-16T07:18:31;8.40;;;4.55;;
76608;SDS011;65928;53.936;27.540;2023-03-16T07:20:57;6.68;;;3.17;;
76608;SDS011;65928;53.936;27.540;2023-03-16T07:23:22;7.57;;;4.45;;
76608;SDS011;65928;53.936;27.540;2023-03-16T07:25:48;12.32;;;7.10;;
76608;SDS011;65928;53.936;27.540;2023-03-16T07:28:16;13.38;;;7.05;;
76608;SDS011;65928;53.936;27.540;2023-03-16T07:30:44;12.50;;;7.80;;
76608;SDS011;65928;53.936;27.540;2023-03-16T07:33:10;14.68;;;6.68;;
76608;SDS011;65928;53.936;27.540;2023-03-16T07:35:36;14.75;;;8.70;;
76608;SDS011;65928;53.936;27.540;2023-03-16T07:38:01;8.70;;;4.78;;
76608;SDS011;65928;53.936;27.540;2023-03-16T07:40:27;8.30;;;4.25;;
76608;SDS011;65928;53.936;27.540;2023-03-16T07:42:53;10.30;;;3.92;;
76608;SDS011;65928;53.936;27.540;2023-03-16T07:45:18;7.07;;;4.30;;
76608;SDS011;65928;53.936;27.540;2023-03-16T07:47:43;9.35;;;5.18;;
76608;SDS011;65928;53.936;27.540;2023-03-16T07:50:10;7.20;;;3.70;;
76608;SDS011;65928;53.936;27.540;2023-03-16T07:52:35;8.00;;;4.47;;
76608;SDS011;65928;53.936;27.540;2023-03-16T07:55:01;11.15;;;4.22;;
76608;SDS011;65928;53.936;27.540;2023-03-16T07:57:27;4.65;;;2.78;;
76608;SDS011;65928;53.936;27.540;2023-03-16T07:59:53;3.97;;;2.13;;
76608;SDS011;65928;53.936;27.540;2023-03-16T08:02:18;5.43;;;2.30;;
76608;SDS011;65928;53.936;27.540;2023-03-16T08:04:45;10.43;;;3.28;;
76608;SDS011;65928;53.936;27.540;2023-03-16T08:07:12;6.28;;;2.70;;
76608;SDS011;65928;53.936;27.540;2023-03-16T08:09:38;6.60;;;2.70;;
76608;SDS011;65928;53.936;27.540;2023-03-16T08:12:04;4.75;;;2.83;;
76608;SDS011;65928;53.936;27.540;2023-03-16T08:14:31;6.75;;;2.97;;
76608;SDS011;65928;53.936;27.540;2023-03-16T08:16:58;5.32;;;2.67;;
76608;SDS011;65928;53.936;27.540;2023-03-16T08:19:24;7.22;;;2.10;;
76608;SDS011;65928;53.936;27.540;2023-03-16T08:21:50;7.28;;;2.75;;
76608;SDS011;65928;53.936;27.540;2023-03-16T08:24:15;7.15;;;3.70;;
76608;SDS011;65928;53.936;27.540;2023-03-16T08:26:40;9.45;;;3.75;;
76608;SDS011;65928;53.936;27.540;2023-03-16T08:29:06;9.57;;;4.57;;
76608;SDS011;65928;53.936;27.540;2023-03-16T08:31:31;5.32;;;2.90;;
76608;SDS011;65928;53.936;27.540;2023-03-16T08:33:59;5.53;;;2.20;;
76608;SDS011;65928;53.936;27.540;2023-03-16T08:36:24;4.35;;;2.00;;
76608;SDS011;65928;53.936;27.540;2023-03-16T08:38:51;6.65;;;2.83;;
76608;SDS011;65928;53.936;27.540;2023-03-16T08:41:18;4.95;;;2.03;;
76608;SDS011;65928;53.936;27.540;2023-03-16T08:43:44;6.28;;;2.53;;
76608;SDS011;65928;53.936;27.540;2023-03-16T08:46:11;4.88;;;2.30;;
76608;SDS011;65928;53.936;27.540;2023-03-16T08:48:37;5.32;;;1.98;;
76608;SDS011;65928;53.936;27.540;2023-03-16T08:51:07;9.43;;;4.18;;
76608;SDS011;65928;53.936;27.540;2023-03-16T08:53:34;5.65;;;3.22;;
76608;SDS011;65928;53.936;27.540;2023-03-16T08:56:07;5.63;;;2.50;;
76608;SDS011;65928;53.936;27.540;2023-03-16T08:58:36;5.85;;;1.85;;
76608;SDS011;65928;53.936;27.540;2023-03-16T09:01:03;6.50;;;1.70;;
76608;SDS011;65928;53.936;27.540;2023-03-16T09:03:30;6.32;;;2.40;;
76608;SDS011;65928;53.936;27.540;2023-03-16T09:06:04;4.88;;;1.90;;
76608;SDS011;65928;53.936;27.540;2023-03-16T09:08:32;5.65;;;2.08;;
76608;SDS011;65928;53.936;27.540;2023-03-16T09:10:58;4.88;;;2.50;;
76608;SDS011;65928;53.936;27.540;2023-03-16T09:13:27;6.40;;;2.10;;
76608;SDS011;65928;53.936;27.540;2023-03-16T09:15:55;7.35;;;3.25;;
76608;SDS011;65928;53.936;27.540;2023-03-16T09:18:20;5.95;;;1.98;;
76608;SDS011;65928;53.936;27.540;2023-03-16T09:20:47;4.38;;;1.85;;
76608;SDS011;65928;53.936;27.540;2023-03-16T09:23:13;6.13;;;1.88;;
76608;SDS011;65928;53.936;27.540;2023-03-16T09:25:39;5.63;;;1.92;;
76608;SDS011;65928;53.936;27.540;2023-03-16T09:28:05;5.72;;;1.90;;
76608;SDS011;65928;53.936;27.540;2023-03-16T09:30:30;5.60;;;1.80;;
76608;SDS011;65928;53.936;27.540;2023-03-16T09:32:56;5.72;;;3.45;;
76608;SDS011;65928;53.936;27.540;2023-03-16T09:35:22;4.95;;;1.80;;
76608;SDS011;65928;53.936;27.540;2023-03-16T09:37:49;8.20;;;2.15;;
76608;SDS011;65928;53.936;27.540;2023-03-16T09:40:22;6.00;;;2.53;;
76608;SDS011;65928;53.936;27.540;2023-03-16T09:46:23;6.07;;;2.03;;
76608;SDS011;65928;53.936;27.540;2023-03-16T09:48:33;5.65;;;2.25;;
76608;SDS011;65928;53.936;27.540;2023-03-16T09:51:00;3.65;;;1.40;;
76608;SDS011;65928;53.936;27.540;2023-03-16T09:53:28;4.22;;;1.90;;
76608;SDS011;65928;53.936;27.540;2023-03-16T09:56:15;5.55;;;1.92;;
76608;SDS011;65928;53.936;27.540;2023-03-16T09:58:46;7.45;;;3.08;;
76608;SDS011;65928;53.936;27.540;2023-03-16T10:01:16;4.88;;;2.03;;
76608;SDS011;65928;53.936;27.540;2023-03-16T10:04:08;4.68;;;1.77;;
76608;SDS011;65928;53.936;27.540;2023-03-16T10:06:54;8.35;;;2.28;;
76608;SDS011;65928;53.936;27.540;2023-03-16T10:09:30;5.32;;;1.73;;
76608;SDS011;65928;53.936;27.540;2023-03-16T10:12:00;4.53;;;1.75;;
76608;SDS011;65928;53.936;27.540;2023-03-16T10:19:52;6.07;;;1.60;;
76608;SDS011;65928;53.936;27.540;2023-03-16T10:27:22;5.28;;;1.98;;
76608;SDS011;65928;53.936;27.540;2023-03-16T10:29:52;5.13;;;2.28;;
76608;SDS011;65928;53.936;27.540;2023-03-16T10:32:17;5.65;;;1.65;;
76608;SDS011;65928;53.936;27.540;2023-03-16T10:34:44;6.78;;;1.75;;
76608;SDS011;65928;53.936;27.540;2023-03-16T10:37:16;5.20;;;1.48;;
76608;SDS011;65928;53.936;27.540;2023-03-16T10:39:42;5.65;;;1.50;;
76608;SDS011;65928;53.936;27.540;2023-03-16T10:42:18;7.10;;;3.42;;
76608;SDS011;65928;53.936;27.540;2023-03-16T10:44:45;4.45;;;1.42;;
76608;SDS011;65928;53.936;27.540;2023-03-16T10:47:18;4.95;;;1.63;;
76608;SDS011;65928;53.936;27.540;2023-03-16T10:49:48;9.00;;;3.08;;
76608;SDS011;65928;53.936;27.540;2023-03-16T10:52:19;5.60;;;2.13;;
76608;SDS011;65928;53.936;27.540;2023-03-16T10:54:55;4.97;;;1.70;;
76608;SDS011;65928;53.936;27.540;2023-03-16T10:57:29;4.65;;;2.00;;
76608;SDS011;65928;53.936;27.540;2023-03-16T11:02:38;8.77;;;1.67;;
76608;SDS011;65928;53.936;27.540;2023-03-16T11:08:00;4.80;;;1.67;;
76608;SDS011;65928;53.936;27.540;2023-03-16T11:10:34;4.93;;;2.78;;
76608;SDS011;65928;53.936;27.540;2023-03-16T11:15:35;5.45;;;2.35;;
76608;SDS011;65928;53.936;27.540;2023-03-16T11:18:03;5.95;;;1.88;;
76608;SDS011;65928;53.936;27.540;2023-03-16T11:20:31;5.15;;;2.28;;
76608;SDS011;65928;53.936;27.540;2023-03-16T11:22:58;4.30;;;2.10;;
76608;SDS011;65928;53.936;27.540;2023-03-16T11:25:39;6.30;;;2.00;;
76608;SDS011;65928;53.936;27.540;2023-03-16T11:28:14;4.15;;;1.45;;
76608;SDS011;65928;53.936;27.540;2023-03-16T11:33:35;4.90;;;1.60;;
76608;SDS011;65928;53.936;27.540;2023-03-16T11:39:09;5.00;;;2.03;;
76608;SDS011;65928;53.936;27.540;2023-03-16T11:47:55;7.82;;;2.35;;
76608;SDS011;65928;53.936;27.540;2023-03-16T11:53:34;31.88;;;3.85;;
76608;SDS011;65928;53.936;27.540;2023-03-16T12:07:30;8.38;;;2.60;;
76608;SDS011;65928;53.936;27.540;2023-03-16T12:12:38;13.27;;;5.18;;
76608;SDS011;65928;53.936;27.540;2023-03-16T12:18:01;5.50;;;2.00;;
76608;SDS011;65928;53.936;27.540;2023-03-16T12:20:42;5.72;;;2.90;;
76608;SDS011;65928;53.936;27.540;2023-03-16T12:23:18;9.23;;;2.65;;
76608;SDS011;65928;53.936;27.540;2023-03-16T12:25:49;4.60;;;1.60;;
76608;SDS011;65928;53.936;27.540;2023-03-16T12:28:26;4.43;;;2.40;;
76608;SDS011;65928;53.936;27.540;2023-03-16T12:30:55;4.68;;;1.50;;
76608;SDS011;65928;53.936;27.540;2023-03-16T12:36:34;6.05;;;1.80;;
76608;SDS011;65928;53.936;27.540;2023-03-16T12:39:23;8.05;;;3.20;;
76608;SDS011;65928;53.936;27.540;2023-03-16T12:44:38;4.43;;;1.77;;
76608;SDS011;65928;53.936;27.540;2023-03-16T12:52:47;4.37;;;1.50;;
76608;SDS011;65928;53.936;27.540;2023-03-16T12:55:24;4.60;;;2.08;;
76608;SDS011;65928;53.936;27.540;2023-03-16T12:58:04;8.13;;;3.85;;
76608;SDS011;65928;53.936;27.540;2023-03-16T13:00:35;6.95;;;1.98;;
76608;SDS011;65928;53.936;27.540;2023-03-16T13:03:02;5.68;;;2.70;;
76608;SDS011;65928;53.936;27.540;2023-03-16T13:05:32;7.53;;;2.28;;
76608;SDS011;65928;53.936;27.540;2023-03-16T13:08:03;6.13;;;2.33;;
76608;SDS011;65928;53.936;27.540;2023-03-16T13:10:32;3.45;;;1.70;;
76608;SDS011;65928;53.936;27.540;2023-03-16T13:13:11;4.68;;;2.40;;
76608;SDS011;65928;53.936;27.540;2023-03-16T13:15:40;5.28;;;1.65;;
76608;SDS011;65928;53.936;27.540;2023-03-16T13:28:35;3.50;;;1.52;;
76608;SDS011;65928;53.936;27.540;2023-03-16T13:31:01;5.10;;;1.88;;
76608;SDS011;65928;53.936;27.540;2023-03-16T13:33:29;5.10;;;1.38;;
76608;SDS011;65928;53.936;27.540;2023-03-16T13:35:58;2.67;;;1.25;;
76608;SDS011;65928;53.936;27.540;2023-03-16T13:38:24;6.00;;;1.50;;
76608;SDS011;65928;53.936;27.540;2023-03-16T13:40:53;5.00;;;1.30;;
76608;SDS011;65928;53.936;27.540;2023-03-16T13:43:24;5.82;;;2.00;;
76608;SDS011;65928;53.936;27.540;2023-03-16T13:45:55;8.80;;;1.27;;
76608;SDS011;65928;53.936;27.540;2023-03-16T13:48:21;3.03;;;1.40;;
76608;SDS011;65928;53.936;27.540;2023-03-16T13:50:50;6.32;;;1.67;;
76608;SDS011;65928;53.936;27.540;2023-03-16T13:55:52;6.35;;;3.10;;
76608;SDS011;65928;53.936;27.540;2023-03-16T13:58:23;5.07;;;2.25;;
76608;SDS011;65928;53.936;27.540;2023-03-16T14:00:55;4.97;;;1.67;;
76608;SDS011;65928;53.936;27.540;2023-03-16T14:03:28;4.93;;;1.85;;
76608;SDS011;65928;53.936;27.540;2023-03-16T14:06:02;3.08;;;1.83;;
76608;SDS011;65928;53.936;27.540;2023-03-16T14:08:29;4.05;;;2.03;;
76608;SDS011;65928;53.936;27.540;2023-03-16T14:10:55;4.75;;;1.63;;
76608;SDS011;65928;53.936;27.540;2023-03-16T14:16:05;4.93;;;1.48;;
76608;SDS011;65928;53.936;27.540;2023-03-16T14:18:41;6.18;;;2.03;;
76608;SDS011;65928;53.936;27.540;2023-03-16T14:21:13;4.25;;;1.77;;
76608;SDS011;65928;53.936;27.540;2023-03-16T14:23:44;4.38;;;1.65;;
76608;SDS011;65928;53.936;27.540;2023-03-16T14:26:13;5.70;;;1.88;;
76608;SDS011;65928;53.936;27.540;2023-03-16T14:28:40;4.35;;;1.60;;
76608;SDS011;65928;53.936;27.540;2023-03-16T14:31:34;4.90;;;2.08;;
76608;SDS011;65928;53.936;27.540;2023-03-16T14:34:05;4.43;;;2.67;;
76608;SDS011;65928;53.936;27.540;2023-03-16T14:36:43;4.35;;;1.50;;
76608;SDS011;65928;53.936;27.540;2023-03-16T14:39:10;3.20;;;1.50;;
76608;SDS011;65928;53.936;27.540;2023-03-16T14:41:37;5.53;;;1.80;;
76608;SDS011;65928;53.936;27.540;2023-03-16T14:44:03;5.22;;;2.53;;
76608;SDS011;65928;53.936;27.540;2023-03-16T14:46:30;5.65;;;2.60;;
76608;SDS011;65928;53.936;27.540;2023-03-16T14:51:54;4.80;;;1.75;;
76608;SDS011;65928;53.936;27.540;2023-03-16T14:54:24;4.35;;;1.30;;
76608;SDS011;65928;53.936;27.540;2023-03-16T14:56:52;4.13;;;1.60;;
76608;SDS011;65928;53.936;27.540;2023-03-16T14:59:18;3.60;;;1.50;;
76608;SDS011;65928;53.936;27.540;2023-03-16T15:01:45;7.07;;;1.80;;
76608;SDS011;65928;53.936;27.540;2023-03-16T15:04:12;3.30;;;1.33;;
76608;SDS011;65928;53.936;27.540;2023-03-16T15:06:39;5.05;;;2.03;;
76608;SDS011;65928;53.936;27.540;2023-03-16T15:09:05;5.82;;;2.47;;
76608;SDS011;65928;53.936;27.540;2023-03-16T15:11:31;5.65;;;1.58;;
76608;SDS011;65928;53.936;27.540;2023-03-16T15:13:58;3.53;;;1.60;;
76608;SDS011;65928;53.936;27.540;2023-03-16T15:16:38;4.45;;;1.70;;
76608;SDS011;65928;53.936;27.540;2023-03-16T15:19:06;5.20;;;1.58;;
76608;SDS011;65928;53.936;27.540;2023-03-16T15:21:32;5.55;;;1.70;;
76608;SDS011;65928;53.936;27.540;2023-03-16T15:23:58;7.43;;;3.20;;
76608;SDS011;65928;53.936;27.540;2023-03-16T15:26:23;4.43;;;1.95;;
76608;SDS011;65928;53.936;27.540;2023-03-16T15:28:51;4.45;;;1.55;;
76608;SDS011;65928;53.936;27.540;2023-03-16T15:31:17;4.13;;;1.20;;
76608;SDS011;65928;53.936;27.540;2023-03-16T15:33:42;4.13;;;1.52;;
76608;SDS011;65928;53.936;27.540;2023-03-16T15:36:18;4.60;;;1.17;;
76608;SDS011;65928;53.936;27.540;2023-03-16T15:38:48;4.18;;;1.92;;
76608;SDS011;65928;53.936;27.540;2023-03-16T15:41:15;5.72;;;1.90;;
76608;SDS011;65928;53.936;27.540;2023-03-16T15:43:41;3.78;;;1.83;;
76608;SDS011;65928;53.936;27.540;2023-03-16T15:46:09;4.78;;;1.33;;
76608;SDS011;65928;53.936;27.540;2023-03-16T15:48:35;4.25;;;2.10;;
76608;SDS011;65928;53.936;27.540;2023-03-16T15:51:01;4.38;;;1.58;;
76608;SDS011;65928;53.936;27.540;2023-03-16T15:53:34;6.53;;;2.28;;
76608;SDS011;65928;53.936;27.540;2023-03-16T15:56:07;3.45;;;2.03;;
76608;SDS011;65928;53.936;27.540;2023-03-16T15:58:35;4.78;;;3.00;;
76608;SDS011;65928;53.936;27.540;2023-03-16T16:01:02;4.20;;;1.90;;
76608;SDS011;65928;53.936;27.540;2023-03-16T16:03:31;6.03;;;2.30;;
76608;SDS011;65928;53.936;27.540;2023-03-16T16:05:57;5.18;;;2.08;;
76608;SDS011;65928;53.936;27.540;2023-03-16T16:08:23;7.28;;;2.50;;
76608;SDS011;65928;53.936;27.540;2023-03-16T16:10:48;4.32;;;2.47;;
76608;SDS011;65928;53.936;27.540;2023-03-16T16:13:27;7.45;;;3.63;;